createdAt,value
2023-01-31T00:00:01.036Z,1014.25
2023-01-31T00:01:04.189Z,1014.42
2023-01-31T00:02:01.160Z,1014.40
2023-01-31T00:03:02.983Z,1014.32
2023-01-31T00:04:06.782Z,1014.30
2023-01-31T00:05:00.841Z,1014.34
2023-01-31T00:06:06.157Z,1014.33
2023-01-31T00:07:01.872Z,1014.37
2023-01-31T00:08:05.765Z,1014.41
2023-01-31T00:09:04.274Z,1014.44
2023-01-31T00:10:02.187Z,1014.45
2023-01-31T00:11:02.335Z,1014.44
2023-01-31T00:12:00.768Z,1014.48
2023-01-31T00:13:02.521Z,1014.47
2023-01-31T00:14:02.335Z,1014.54
2023-01-31T00:15:01.536Z,1014.56
2023-01-31T00:16:02.377Z,1014.56
2023-01-31T00:17:01.952Z,1014.54
2023-01-31T00:18:00.908Z,1014.57
2023-01-31T00:19:01.869Z,1014.53
2023-01-31T00:20:02.408Z,1014.48
2023-01-31T00:21:12.653Z,1014.51
2023-01-31T00:22:08.241Z,1014.45
2023-01-31T00:23:04.925Z,1014.41
2023-01-31T00:24:02.815Z,1014.42
2023-01-31T00:25:09.201Z,1014.40
2023-01-31T00:26:03.123Z,1014.47
2023-01-31T00:27:01.198Z,1014.42
2023-01-31T00:28:08.562Z,1014.39
2023-01-31T00:29:02.421Z,1014.41
2023-01-31T00:30:13.814Z,1014.44
2023-01-31T00:31:04.315Z,1014.49
2023-01-31T00:32:03.683Z,1014.51
2023-01-31T00:33:02.275Z,1014.51
2023-01-31T00:34:09.475Z,1014.53
2023-01-31T00:38:11.857Z,1014.52
2023-01-31T00:38:59.339Z,1014.58
2023-01-31T00:40:00.574Z,1014.56
2023-01-31T00:40:58.756Z,1014.55
2023-01-31T00:42:00.569Z,1014.54
2023-01-31T00:42:58.270Z,1014.60
2023-01-31T00:45:22.179Z,1014.62
2023-01-31T00:46:24.104Z,1014.66
2023-01-31T00:47:13.243Z,1014.72
2023-01-31T00:48:18.774Z,1014.61
2023-01-31T00:49:14.767Z,1014.62
2023-01-31T00:50:21.528Z,1014.60
2023-01-31T00:51:14.904Z,1014.56
2023-01-31T00:52:15.555Z,1014.58
2023-01-31T00:53:16.459Z,1014.59
2023-01-31T00:54:16.435Z,1014.62
2023-01-31T00:55:12.275Z,1014.59
2023-01-31T00:56:16.869Z,1014.60
2023-01-31T00:57:28.132Z,1014.58
2023-01-31T00:58:14.847Z,1014.56
2023-01-31T00:59:16.895Z,1014.53
2023-01-31T01:00:14.974Z,1014.59
2023-01-31T01:01:16.092Z,1014.63
2023-01-31T01:02:13.738Z,1014.63
2023-01-31T01:03:15.378Z,1014.61
2023-01-31T01:04:13.016Z,1014.66
2023-01-31T01:05:18.314Z,1014.68
2023-01-31T01:06:13.195Z,1014.68
2023-01-31T01:07:11.314Z,1014.72
2023-01-31T01:08:11.745Z,1014.73
2023-01-31T01:09:22.006Z,1014.77
2023-01-31T01:10:12.571Z,1014.75
2023-01-31T01:11:17.171Z,1014.71
2023-01-31T01:12:19.530Z,1014.70
2023-01-31T01:13:14.653Z,1014.74
2023-01-31T01:14:14.539Z,1014.81
2023-01-31T01:15:13.103Z,1014.92
2023-01-31T01:17:51.557Z,1014.95
2023-01-31T01:18:44.483Z,1015.04
2023-01-31T01:19:44.674Z,1014.97
2023-01-31T01:20:44.460Z,1014.87
2023-01-31T01:21:44.588Z,1014.81
2023-01-31T01:22:44.414Z,1014.85
2023-01-31T01:23:44.408Z,1014.87
2023-01-31T01:24:44.416Z,1014.81
2023-01-31T01:25:44.324Z,1014.82
2023-01-31T01:26:44.370Z,1014.69
2023-01-31T01:27:44.436Z,1014.67
2023-01-31T01:28:44.419Z,1014.66
2023-01-31T01:29:44.350Z,1014.68
2023-01-31T01:30:44.478Z,1014.65
2023-01-31T01:31:44.396Z,1014.68
2023-01-31T01:32:44.366Z,1014.63
2023-01-31T01:33:44.451Z,1014.65
2023-01-31T01:34:44.549Z,1014.68
2023-01-31T01:35:44.186Z,1014.73
2023-01-31T01:36:46.861Z,1014.69
2023-01-31T01:37:44.195Z,1014.70
2023-01-31T01:38:45.284Z,1014.69
2023-01-31T01:39:44.632Z,1014.70
2023-01-31T01:40:44.730Z,1014.67
2023-01-31T01:41:45.357Z,1014.69
2023-01-31T01:42:44.772Z,1014.66
2023-01-31T01:43:45.147Z,1014.70
2023-01-31T01:44:44.964Z,1014.69
2023-01-31T01:45:45.340Z,1014.71
2023-01-31T01:46:45.069Z,1014.70
2023-01-31T01:47:45.086Z,1014.66
2023-01-31T01:48:44.383Z,1014.65
2023-01-31T01:49:45.092Z,1014.64
2023-01-31T01:50:44.469Z,1014.66
2023-01-31T01:51:44.207Z,1014.69
2023-01-31T01:52:44.393Z,1014.72
2023-01-31T01:53:45.869Z,1014.77
2023-01-31T01:54:44.645Z,1014.75
2023-01-31T01:55:45.544Z,1014.71
2023-01-31T01:56:44.723Z,1014.74
2023-01-31T01:57:44.579Z,1014.72
2023-01-31T01:58:44.666Z,1014.74
2023-01-31T01:59:44.771Z,1014.75
2023-01-31T02:00:44.544Z,1014.81
2023-01-31T02:01:45.674Z,1014.84
2023-01-31T02:02:44.569Z,1014.86
2023-01-31T02:03:44.443Z,1014.80
2023-01-31T02:04:45.066Z,1014.81
2023-01-31T02:05:44.595Z,1014.86
2023-01-31T02:06:45.627Z,1014.89
2023-01-31T02:07:44.282Z,1014.84
2023-01-31T02:08:44.311Z,1014.87
2023-01-31T02:09:44.223Z,1014.84
2023-01-31T02:10:49.369Z,1014.91
2023-01-31T02:11:45.055Z,1014.94
2023-01-31T02:12:43.750Z,1014.96
2023-01-31T02:13:44.782Z,1014.96
2023-01-31T02:14:44.158Z,1015.04
2023-01-31T02:15:45.005Z,1015.02
2023-01-31T02:16:44.648Z,1015.03
2023-01-31T02:17:43.997Z,1015.08
2023-01-31T02:18:44.594Z,1015.09
2023-01-31T02:19:44.101Z,1015.13
2023-01-31T02:20:44.405Z,1015.12
2023-01-31T02:21:44.311Z,1015.15
2023-01-31T02:22:44.414Z,1015.17
2023-01-31T02:23:43.720Z,1015.10
2023-01-31T02:24:44.103Z,1015.11
2023-01-31T02:25:43.821Z,1015.06
2023-01-31T02:26:43.663Z,1015.04
2023-01-31T02:27:43.629Z,1015.06
2023-01-31T02:28:43.842Z,1015.01
2023-01-31T02:29:44.270Z,1015.03
2023-01-31T02:30:43.823Z,1015.04
2023-01-31T02:31:43.859Z,1015.02
2023-01-31T02:32:43.794Z,1015.04
2023-01-31T02:33:43.375Z,1015.04
2023-01-31T02:34:43.578Z,1015.03
2023-01-31T02:35:43.495Z,1015.04
2023-01-31T02:36:43.294Z,1014.98
2023-01-31T02:37:43.486Z,1015.00
2023-01-31T02:38:43.423Z,1015.02
2023-01-31T02:39:43.419Z,1014.99
2023-01-31T02:40:43.517Z,1015.05
2023-01-31T02:41:43.337Z,1015.14
2023-01-31T02:42:43.356Z,1015.19
2023-01-31T02:43:43.234Z,1015.18
2023-01-31T02:44:43.427Z,1015.20
2023-01-31T02:45:43.315Z,1015.19
2023-01-31T02:46:43.254Z,1015.25
2023-01-31T02:47:43.250Z,1015.22
2023-01-31T02:48:43.203Z,1015.20
2023-01-31T02:49:43.179Z,1015.21
2023-01-31T02:50:43.481Z,1015.22
2023-01-31T02:51:43.293Z,1015.20
2023-01-31T02:52:43.488Z,1015.22
2023-01-31T02:53:43.298Z,1015.18
2023-01-31T02:54:43.193Z,1015.15
2023-01-31T02:55:43.094Z,1015.20
2023-01-31T02:56:43.342Z,1015.20
2023-01-31T02:57:43.122Z,1015.17
2023-01-31T02:58:42.981Z,1015.25
2023-01-31T02:59:43.055Z,1015.28
2023-01-31T03:00:45.363Z,1015.26
2023-01-31T03:01:43.313Z,1015.22
2023-01-31T03:02:43.047Z,1015.18
2023-01-31T03:03:43.046Z,1015.18
2023-01-31T03:04:43.412Z,1015.23
2023-01-31T03:05:43.215Z,1015.20
2023-01-31T03:06:43.274Z,1015.17
2023-01-31T03:07:42.896Z,1015.24
2023-01-31T03:08:43.297Z,1015.20
2023-01-31T03:09:43.538Z,1015.13
2023-01-31T03:10:43.022Z,1015.14
2023-01-31T03:11:43.522Z,1015.10
2023-01-31T03:12:42.940Z,1015.09
2023-01-31T03:13:43.032Z,1015.12
2023-01-31T03:14:42.835Z,1015.11
2023-01-31T03:15:42.840Z,1015.13
2023-01-31T03:16:43.189Z,1015.09
2023-01-31T03:17:43.147Z,1015.13
2023-01-31T03:18:42.849Z,1015.15
2023-01-31T03:19:43.096Z,1015.09
2023-01-31T03:20:42.968Z,1015.07
2023-01-31T03:21:42.875Z,1015.04
2023-01-31T03:22:42.685Z,1015.04
2023-01-31T03:23:43.503Z,1015.00
2023-01-31T03:24:42.704Z,1015.01
2023-01-31T03:25:43.411Z,1015.07
2023-01-31T03:26:45.172Z,1015.05
2023-01-31T03:27:42.843Z,1014.96
2023-01-31T03:28:43.337Z,1014.99
2023-01-31T03:29:43.247Z,1015.01
2023-01-31T03:30:44.634Z,1015.02
2023-01-31T03:31:42.838Z,1014.98
2023-01-31T03:32:42.988Z,1014.96
2023-01-31T03:33:43.291Z,1015.00
2023-01-31T03:34:43.299Z,1015.04
2023-01-31T03:35:42.780Z,1015.01
2023-01-31T03:36:42.604Z,1014.98
2023-01-31T03:37:42.593Z,1015.03
2023-01-31T03:38:43.002Z,1015.03
2023-01-31T03:39:42.983Z,1015.00
2023-01-31T03:40:43.039Z,1015.00
2023-01-31T03:41:42.531Z,1015.03
2023-01-31T03:42:43.443Z,1014.99
2023-01-31T03:43:42.850Z,1014.97
2023-01-31T03:44:42.434Z,1014.97
2023-01-31T03:45:42.538Z,1014.91
2023-01-31T03:46:42.552Z,1014.94
2023-01-31T03:47:42.683Z,1014.96
2023-01-31T03:48:42.349Z,1014.95
2023-01-31T03:49:42.511Z,1014.91
2023-01-31T03:50:42.383Z,1014.90
2023-01-31T03:51:42.472Z,1014.97
2023-01-31T03:52:42.370Z,1015.04
2023-01-31T03:53:42.291Z,1015.06
2023-01-31T03:54:42.180Z,1015.04
2023-01-31T03:55:42.300Z,1015.06
2023-01-31T03:56:42.207Z,1015.11
2023-01-31T03:57:42.330Z,1015.08
2023-01-31T03:58:42.222Z,1015.02
2023-01-31T03:59:42.142Z,1015.00
2023-01-31T04:00:42.280Z,1015.00
2023-01-31T04:01:42.276Z,1015.01
2023-01-31T04:02:42.189Z,1015.07
2023-01-31T04:03:42.150Z,1015.07
2023-01-31T04:04:42.161Z,1015.04
2023-01-31T04:05:42.162Z,1015.06
2023-01-31T04:06:42.121Z,1015.01
2023-01-31T04:07:42.082Z,1015.00
2023-01-31T04:08:42.013Z,1014.98
2023-01-31T04:09:42.096Z,1014.95
2023-01-31T04:10:42.853Z,1014.91
2023-01-31T04:11:42.320Z,1014.90
2023-01-31T04:12:42.334Z,1014.88
2023-01-31T04:13:42.219Z,1014.89
2023-01-31T04:14:42.163Z,1014.86
2023-01-31T04:15:42.172Z,1014.92
2023-01-31T04:16:42.289Z,1014.90
2023-01-31T04:17:42.151Z,1014.97
2023-01-31T04:18:42.255Z,1014.96
2023-01-31T04:19:42.081Z,1014.92
2023-01-31T04:20:42.079Z,1014.94
2023-01-31T04:21:41.991Z,1014.93
2023-01-31T04:22:42.101Z,1014.90
2023-01-31T04:23:42.111Z,1014.91
2023-01-31T04:24:42.000Z,1014.91
2023-01-31T04:25:42.021Z,1014.83
2023-01-31T04:26:42.075Z,1014.84
2023-01-31T04:27:42.039Z,1014.81
2023-01-31T04:28:42.008Z,1014.81
2023-01-31T04:29:42.055Z,1014.80
2023-01-31T04:30:41.965Z,1014.78
2023-01-31T04:31:42.143Z,1014.78
2023-01-31T04:32:41.867Z,1014.81
2023-01-31T04:33:41.968Z,1014.78
2023-01-31T04:34:41.869Z,1014.72
2023-01-31T04:35:41.884Z,1014.73
2023-01-31T04:36:42.178Z,1014.75
2023-01-31T04:37:41.884Z,1014.83
2023-01-31T04:38:41.879Z,1014.81
2023-01-31T04:39:41.899Z,1014.83
2023-01-31T04:40:41.838Z,1014.76
2023-01-31T04:41:41.900Z,1014.76
2023-01-31T04:42:41.728Z,1014.78
2023-01-31T04:43:41.818Z,1014.76
2023-01-31T04:44:41.831Z,1014.77
2023-01-31T04:45:41.939Z,1014.73
2023-01-31T04:46:41.666Z,1014.78
2023-01-31T04:47:41.741Z,1014.71
2023-01-31T04:48:41.746Z,1014.70
2023-01-31T04:49:41.684Z,1014.71
2023-01-31T04:50:41.592Z,1014.79
2023-01-31T04:51:41.870Z,1014.76
2023-01-31T04:52:41.699Z,1014.76
2023-01-31T04:53:41.598Z,1014.71
2023-01-31T04:54:41.667Z,1014.71
2023-01-31T04:55:41.807Z,1014.73
2023-01-31T04:56:41.603Z,1014.77
2023-01-31T04:57:41.736Z,1014.75
2023-01-31T04:58:41.538Z,1014.74
2023-01-31T04:59:41.529Z,1014.69
2023-01-31T05:00:41.686Z,1014.67
2023-01-31T05:01:41.632Z,1014.67
2023-01-31T05:02:41.598Z,1014.65
2023-01-31T05:03:41.500Z,1014.65
2023-01-31T05:04:41.654Z,1014.61
2023-01-31T05:05:41.487Z,1014.67
2023-01-31T05:06:41.405Z,1014.59
2023-01-31T05:07:41.780Z,1014.56
2023-01-31T05:08:41.408Z,1014.55
2023-01-31T05:09:41.328Z,1014.59
2023-01-31T05:10:41.437Z,1014.57
2023-01-31T05:11:41.421Z,1014.56
2023-01-31T05:12:41.414Z,1014.62
2023-01-31T05:13:41.333Z,1014.65
2023-01-31T05:14:41.421Z,1014.65
2023-01-31T05:15:41.445Z,1014.67
2023-01-31T05:16:41.361Z,1014.70
2023-01-31T05:17:41.253Z,1014.71
2023-01-31T05:18:41.355Z,1014.72
2023-01-31T05:19:41.298Z,1014.75
2023-01-31T05:20:41.306Z,1014.70
2023-01-31T05:21:41.163Z,1014.68
2023-01-31T05:22:41.501Z,1014.68
2023-01-31T05:23:41.206Z,1014.71
2023-01-31T05:24:41.176Z,1014.69
2023-01-31T05:25:41.219Z,1014.73
2023-01-31T05:26:41.242Z,1014.73
2023-01-31T05:27:41.339Z,1014.72
2023-01-31T05:28:41.166Z,1014.69
2023-01-31T05:29:41.114Z,1014.72
2023-01-31T05:30:41.560Z,1014.76
2023-01-31T05:31:41.189Z,1014.72
2023-01-31T05:32:41.068Z,1014.74
2023-01-31T05:33:41.085Z,1014.74
2023-01-31T05:34:41.080Z,1014.70
2023-01-31T05:35:41.059Z,1014.72
2023-01-31T05:36:41.006Z,1014.68
2023-01-31T05:37:40.992Z,1014.69
2023-01-31T05:38:40.984Z,1014.76
2023-01-31T05:39:41.929Z,1014.79
2023-01-31T05:40:41.242Z,1014.77
2023-01-31T05:41:40.918Z,1014.75
2023-01-31T05:42:40.917Z,1014.76
2023-01-31T05:43:41.019Z,1014.75
2023-01-31T05:44:40.854Z,1014.70
2023-01-31T05:45:41.040Z,1014.70
2023-01-31T05:46:40.865Z,1014.71
2023-01-31T05:47:40.848Z,1014.67
2023-01-31T05:48:41.070Z,1014.69
2023-01-31T05:49:40.850Z,1014.66
2023-01-31T05:50:40.773Z,1014.60
2023-01-31T05:51:40.874Z,1014.60
2023-01-31T05:52:41.120Z,1014.63
2023-01-31T05:53:40.793Z,1014.70
2023-01-31T05:54:40.824Z,1014.63
2023-01-31T05:55:40.819Z,1014.63
2023-01-31T05:56:40.795Z,1014.60
2023-01-31T05:57:40.831Z,1014.56
2023-01-31T05:58:40.747Z,1014.57
2023-01-31T05:59:40.661Z,1014.56
2023-01-31T06:00:40.739Z,1014.56
2023-01-31T06:01:40.842Z,1014.56
2023-01-31T06:02:40.642Z,1014.55
2023-01-31T06:03:40.752Z,1014.59
2023-01-31T06:04:40.583Z,1014.70
2023-01-31T06:05:47.529Z,1014.64
2023-01-31T06:06:40.691Z,1014.53
2023-01-31T06:07:40.700Z,1014.58
2023-01-31T06:08:40.573Z,1014.57
2023-01-31T06:09:40.524Z,1014.52
2023-01-31T06:10:40.529Z,1014.56
2023-01-31T06:11:40.625Z,1014.59
2023-01-31T06:12:40.656Z,1014.55
2023-01-31T06:13:40.435Z,1014.54
2023-01-31T06:15:11.886Z,1014.64
2023-01-31T06:15:48.022Z,1014.53
2023-01-31T06:16:40.697Z,1014.63
2023-01-31T06:17:40.468Z,1014.64
2023-01-31T06:18:40.484Z,1014.63
2023-01-31T06:19:41.775Z,1014.64
2023-01-31T06:20:41.070Z,1014.59
2023-01-31T06:21:40.385Z,1014.62
2023-01-31T06:22:40.474Z,1014.56
2023-01-31T06:23:40.416Z,1014.57
2023-01-31T06:24:40.477Z,1014.62
2023-01-31T06:25:40.251Z,1014.58
2023-01-31T06:26:40.367Z,1014.58
2023-01-31T06:27:40.249Z,1014.51
2023-01-31T06:28:40.236Z,1014.54
2023-01-31T06:29:40.330Z,1014.54
2023-01-31T06:30:40.332Z,1014.47
2023-01-31T06:31:40.463Z,1014.48
2023-01-31T06:32:40.546Z,1014.45
2023-01-31T06:33:47.045Z,1014.43
2023-01-31T06:34:41.179Z,1014.43
2023-01-31T06:35:40.267Z,1014.49
2023-01-31T06:36:40.069Z,1014.43
2023-01-31T06:37:40.173Z,1014.42
2023-01-31T06:38:40.207Z,1014.41
2023-01-31T06:39:41.015Z,1014.42
2023-01-31T06:40:40.130Z,1014.40
2023-01-31T06:41:40.022Z,1014.42
2023-01-31T06:42:40.034Z,1014.36
2023-01-31T06:43:40.352Z,1014.33
2023-01-31T06:44:40.029Z,1014.35
2023-01-31T06:45:40.161Z,1014.40
2023-01-31T06:46:40.054Z,1014.40
2023-01-31T06:47:39.959Z,1014.45
2023-01-31T06:48:40.065Z,1014.39
2023-01-31T06:49:40.168Z,1014.33
2023-01-31T06:50:39.999Z,1014.36
2023-01-31T06:51:39.998Z,1014.26
2023-01-31T06:52:39.875Z,1014.28
2023-01-31T06:53:39.911Z,1014.24
2023-01-31T06:54:39.891Z,1014.22
2023-01-31T06:55:40.043Z,1014.24
2023-01-31T06:56:39.998Z,1014.17
2023-01-31T06:57:39.923Z,1014.10
2023-01-31T06:58:39.939Z,1014.09
2023-01-31T06:59:39.913Z,1014.09
2023-01-31T07:00:39.927Z,1014.06
2023-01-31T07:01:39.879Z,1014.05
2023-01-31T07:02:39.835Z,1014.07
2023-01-31T07:03:39.775Z,1014.04
2023-01-31T07:04:39.825Z,1013.99
2023-01-31T07:05:39.876Z,1013.97
2023-01-31T07:06:39.785Z,1013.92
2023-01-31T07:07:39.801Z,1013.91
2023-01-31T07:08:39.775Z,1013.94
2023-01-31T07:09:39.694Z,1013.93
2023-01-31T07:10:39.693Z,1013.91
2023-01-31T07:11:39.711Z,1013.93
2023-01-31T07:12:39.736Z,1013.87
2023-01-31T07:13:39.624Z,1013.95
2023-01-31T07:14:39.629Z,1013.84
2023-01-31T07:15:39.855Z,1013.82
2023-01-31T07:16:39.743Z,1013.82
2023-01-31T07:17:39.646Z,1013.81
2023-01-31T07:18:39.691Z,1013.75
2023-01-31T07:19:39.593Z,1013.72
2023-01-31T07:20:39.557Z,1013.66
2023-01-31T07:21:39.594Z,1013.65
2023-01-31T07:22:39.605Z,1013.68
2023-01-31T07:23:39.575Z,1013.56
2023-01-31T07:24:39.507Z,1013.61
2023-01-31T07:25:39.500Z,1013.58
2023-01-31T07:26:39.851Z,1013.55
2023-01-31T07:27:39.428Z,1013.54
2023-01-31T07:28:39.429Z,1013.51
2023-01-31T07:29:39.426Z,1013.50
2023-01-31T07:30:39.485Z,1013.49
2023-01-31T07:31:40.010Z,1013.55
2023-01-31T07:32:39.722Z,1013.56
2023-01-31T07:33:39.691Z,1013.51
2023-01-31T07:34:39.530Z,1013.48
2023-01-31T07:35:40.271Z,1013.39
2023-01-31T07:36:39.376Z,1013.41
2023-01-31T07:37:39.542Z,1013.34
2023-01-31T07:38:39.271Z,1013.35
2023-01-31T07:39:39.279Z,1013.38
2023-01-31T07:40:39.184Z,1013.38
2023-01-31T07:41:39.208Z,1013.38
2023-01-31T07:42:39.207Z,1013.37
2023-01-31T07:43:39.231Z,1013.32
2023-01-31T07:44:39.216Z,1013.35
2023-01-31T07:45:39.708Z,1013.32
2023-01-31T07:46:39.171Z,1013.26
2023-01-31T07:47:39.155Z,1013.22
2023-01-31T07:48:39.144Z,1013.26
2023-01-31T07:49:39.170Z,1013.23
2023-01-31T07:50:39.168Z,1013.13
2023-01-31T07:51:39.061Z,1013.13
2023-01-31T07:52:39.004Z,1013.10
2023-01-31T07:53:39.203Z,1013.11
2023-01-31T07:54:39.038Z,1013.11
2023-01-31T07:55:39.116Z,1013.06
2023-01-31T07:56:39.105Z,1013.10
2023-01-31T07:57:39.111Z,1013.03
2023-01-31T07:58:39.037Z,1013.08
2023-01-31T07:59:39.418Z,1013.10
2023-01-31T08:00:39.053Z,1013.00
2023-01-31T08:01:39.085Z,1012.96
2023-01-31T08:02:38.956Z,1013.01
2023-01-31T08:03:38.941Z,1012.94
2023-01-31T08:04:38.982Z,1013.02
2023-01-31T08:05:38.983Z,1012.98
2023-01-31T08:06:38.886Z,1013.01
2023-01-31T08:07:38.986Z,1013.06
2023-01-31T08:08:38.940Z,1013.01
2023-01-31T08:09:39.112Z,1012.92
2023-01-31T08:10:38.896Z,1012.89
2023-01-31T08:11:39.992Z,1012.97
2023-01-31T08:12:38.839Z,1012.87
2023-01-31T08:13:38.930Z,1012.93
2023-01-31T08:14:38.805Z,1012.90
2023-01-31T08:15:38.831Z,1012.86
2023-01-31T08:16:38.835Z,1012.87
2023-01-31T08:17:38.730Z,1012.83
2023-01-31T08:18:38.784Z,1012.80
2023-01-31T08:19:38.755Z,1012.78
2023-01-31T08:20:38.781Z,1012.76
2023-01-31T08:21:38.695Z,1012.76
2023-01-31T08:22:38.777Z,1012.77
2023-01-31T08:23:38.795Z,1012.71
2023-01-31T08:24:38.784Z,1012.75
2023-01-31T08:25:38.807Z,1012.69
2023-01-31T08:26:38.645Z,1012.58
2023-01-31T08:27:38.616Z,1012.57
2023-01-31T08:28:38.612Z,1012.48
2023-01-31T08:29:39.029Z,1012.45
2023-01-31T08:30:38.562Z,1012.46
2023-01-31T08:31:38.637Z,1012.45
2023-01-31T08:32:38.541Z,1012.44
2023-01-31T08:33:38.634Z,1012.44
2023-01-31T08:34:38.542Z,1012.46
2023-01-31T08:35:38.568Z,1012.44
2023-01-31T08:36:38.542Z,1012.43
2023-01-31T08:37:38.464Z,1012.49
2023-01-31T08:38:38.567Z,1012.45
2023-01-31T08:39:38.481Z,1012.48
2023-01-31T08:40:38.404Z,1012.56
2023-01-31T08:41:38.487Z,1012.54
2023-01-31T08:42:39.329Z,1012.56
2023-01-31T08:43:53.723Z,1012.54
2023-01-31T08:44:39.355Z,1012.56
2023-01-31T08:45:38.431Z,1012.57
2023-01-31T08:46:38.365Z,1012.59
2023-01-31T08:47:38.355Z,1012.53
2023-01-31T08:48:38.359Z,1012.50
2023-01-31T08:49:38.576Z,1012.49
2023-01-31T08:50:40.423Z,1012.46
2023-01-31T08:51:38.271Z,1012.51
2023-01-31T08:52:38.277Z,1012.41
2023-01-31T08:53:38.186Z,1012.44
2023-01-31T08:54:38.197Z,1012.42
2023-01-31T08:55:38.222Z,1012.40
2023-01-31T08:56:39.106Z,1012.37
2023-01-31T08:57:48.799Z,1012.33
2023-01-31T08:58:39.237Z,1012.28
2023-01-31T08:59:38.216Z,1012.28
2023-01-31T09:00:38.210Z,1012.27
2023-01-31T09:01:38.165Z,1012.24
2023-01-31T09:02:39.109Z,1012.21
2023-01-31T09:03:38.562Z,1012.26
2023-01-31T09:04:38.170Z,1012.16
2023-01-31T09:05:38.065Z,1012.15
2023-01-31T09:06:38.068Z,1012.14
2023-01-31T09:07:38.085Z,1012.18
2023-01-31T09:08:38.068Z,1012.19
2023-01-31T09:09:38.090Z,1012.14
2023-01-31T09:10:37.993Z,1012.12
2023-01-31T09:11:38.001Z,1012.06
2023-01-31T09:12:38.019Z,1012.05
2023-01-31T09:13:38.040Z,1012.00
2023-01-31T09:14:39.134Z,1011.98
2023-01-31T09:15:37.944Z,1011.95
2023-01-31T09:16:38.079Z,1011.99
2023-01-31T09:17:37.951Z,1012.01
2023-01-31T09:18:37.946Z,1011.99
2023-01-31T09:19:37.949Z,1011.94
2023-01-31T09:20:38.392Z,1011.94
2023-01-31T09:21:38.415Z,1011.96
2023-01-31T09:22:38.407Z,1011.90
2023-01-31T09:23:39.841Z,1011.95
2023-01-31T09:24:38.190Z,1011.96
2023-01-31T09:25:47.020Z,1011.92
2023-01-31T09:26:38.862Z,1011.91
2023-01-31T09:27:38.006Z,1011.81
2023-01-31T09:28:37.954Z,1011.84
2023-01-31T09:29:37.708Z,1011.72
2023-01-31T09:30:37.739Z,1011.64
2023-01-31T09:31:37.902Z,1011.64
2023-01-31T09:32:37.753Z,1011.64
2023-01-31T09:33:37.767Z,1011.61
2023-01-31T09:34:37.737Z,1011.62
2023-01-31T09:35:37.654Z,1011.61
2023-01-31T09:36:37.672Z,1011.58
2023-01-31T09:37:37.574Z,1011.61
2023-01-31T09:38:37.700Z,1011.55
2023-01-31T09:39:37.586Z,1011.54
2023-01-31T09:40:37.591Z,1011.59
2023-01-31T09:41:38.528Z,1011.55
2023-01-31T09:42:37.616Z,1011.53
2023-01-31T09:43:38.537Z,1011.41
2023-01-31T09:44:37.528Z,1011.48
2023-01-31T09:45:37.620Z,1011.36
2023-01-31T09:46:37.983Z,1011.43
2023-01-31T09:47:37.544Z,1011.41
2023-01-31T09:48:37.428Z,1011.38
2023-01-31T09:49:37.533Z,1011.35
2023-01-31T09:50:37.483Z,1011.30
2023-01-31T09:51:37.471Z,1011.31
2023-01-31T09:52:37.472Z,1011.21
2023-01-31T09:53:37.507Z,1011.19
2023-01-31T09:54:37.388Z,1011.25
2023-01-31T09:55:37.385Z,1011.13
2023-01-31T09:56:37.388Z,1011.00
2023-01-31T09:57:37.418Z,1010.99
2023-01-31T09:58:37.419Z,1010.97
2023-01-31T09:59:37.400Z,1010.89
2023-01-31T10:00:37.371Z,1010.95
2023-01-31T10:01:37.318Z,1010.86
2023-01-31T10:02:37.249Z,1010.89
2023-01-31T10:03:37.393Z,1010.85
2023-01-31T10:04:37.269Z,1010.91
2023-01-31T10:05:37.256Z,1010.90
2023-01-31T10:06:38.271Z,1010.86
2023-01-31T10:07:38.125Z,1010.91
2023-01-31T10:08:37.189Z,1010.82
2023-01-31T10:09:37.379Z,1010.78
2023-01-31T10:10:37.208Z,1010.73
2023-01-31T10:11:38.282Z,1010.71
2023-01-31T10:12:37.201Z,1010.75
2023-01-31T10:13:37.215Z,1010.74
2023-01-31T10:14:38.059Z,1010.66
2023-01-31T10:15:38.033Z,1010.62
2023-01-31T10:16:37.153Z,1010.56
2023-01-31T10:17:37.178Z,1010.53
2023-01-31T10:18:38.065Z,1010.57
2023-01-31T10:19:37.084Z,1010.55
2023-01-31T10:20:37.223Z,1010.52
2023-01-31T10:21:37.060Z,1010.53
2023-01-31T10:22:37.147Z,1010.53
2023-01-31T10:23:37.107Z,1010.46
2023-01-31T10:24:37.113Z,1010.51
2023-01-31T10:25:36.989Z,1010.51
2023-01-31T10:26:37.279Z,1010.49
2023-01-31T10:27:37.031Z,1010.53
2023-01-31T10:28:37.417Z,1010.51
2023-01-31T10:29:36.927Z,1010.47
2023-01-31T10:30:36.932Z,1010.53
2023-01-31T10:31:36.969Z,1010.49
2023-01-31T10:32:36.947Z,1010.46
2023-01-31T10:33:38.102Z,1010.51
2023-01-31T10:34:38.317Z,1010.39
2023-01-31T10:35:37.383Z,1010.48
2023-01-31T10:36:36.856Z,1010.42
2023-01-31T10:37:36.969Z,1010.46
2023-01-31T10:38:36.809Z,1010.41
2023-01-31T10:39:36.786Z,1010.39
2023-01-31T10:40:36.791Z,1010.40
2023-01-31T10:41:36.823Z,1010.30
2023-01-31T10:42:36.818Z,1010.32
2023-01-31T10:43:37.563Z,1010.32
2023-01-31T10:44:36.813Z,1010.28
2023-01-31T10:45:37.385Z,1010.27
2023-01-31T10:46:36.716Z,1010.24
2023-01-31T10:47:36.750Z,1010.19
2023-01-31T10:48:36.671Z,1010.19
2023-01-31T10:49:36.662Z,1010.16
2023-01-31T10:50:36.873Z,1010.14
2023-01-31T10:51:36.569Z,1010.14
2023-01-31T10:52:36.681Z,1010.07
2023-01-31T10:53:36.584Z,1010.11
2023-01-31T10:54:36.584Z,1010.14
2023-01-31T10:55:36.609Z,1010.03
2023-01-31T10:56:36.703Z,1010.03
2023-01-31T10:57:36.512Z,1010.00
2023-01-31T10:58:36.590Z,1009.90
2023-01-31T10:59:36.509Z,1009.91
2023-01-31T11:00:36.632Z,1009.89
2023-01-31T11:01:36.627Z,1009.85
2023-01-31T11:02:36.612Z,1009.79
2023-01-31T11:03:36.557Z,1009.82
2023-01-31T11:04:36.440Z,1009.87
2023-01-31T11:05:36.448Z,1009.81
2023-01-31T11:06:36.383Z,1009.77
2023-01-31T11:07:36.463Z,1009.78
2023-01-31T11:08:36.450Z,1009.64
2023-01-31T11:09:36.376Z,1009.67
2023-01-31T11:10:36.376Z,1009.68
2023-01-31T11:11:36.398Z,1009.62
2023-01-31T11:12:36.395Z,1009.57
2023-01-31T11:13:36.433Z,1009.58
2023-01-31T11:14:36.333Z,1009.52
2023-01-31T11:15:36.316Z,1009.55
2023-01-31T11:16:36.339Z,1009.43
2023-01-31T11:17:36.294Z,1009.48
2023-01-31T11:18:36.253Z,1009.47
2023-01-31T11:19:36.278Z,1009.49
2023-01-31T11:20:36.263Z,1009.51
2023-01-31T11:21:36.272Z,1009.48
2023-01-31T11:22:36.263Z,1009.51
2023-01-31T11:23:36.189Z,1009.63
2023-01-31T11:24:36.211Z,1009.63
2023-01-31T11:25:36.187Z,1009.69
2023-01-31T11:26:36.148Z,1009.73
2023-01-31T11:27:36.311Z,1009.71
2023-01-31T11:28:36.203Z,1009.69
2023-01-31T11:29:36.031Z,1009.71
2023-01-31T11:30:36.169Z,1009.74
2023-01-31T11:31:37.089Z,1009.71
2023-01-31T11:32:36.145Z,1009.66
2023-01-31T11:33:36.044Z,1009.60
2023-01-31T11:34:36.047Z,1009.55
2023-01-31T11:35:36.067Z,1009.52
2023-01-31T11:36:35.968Z,1009.56
2023-01-31T11:37:36.010Z,1009.50
2023-01-31T11:38:35.981Z,1009.41
2023-01-31T11:39:35.981Z,1009.51
2023-01-31T11:40:35.987Z,1009.48
2023-01-31T11:41:35.911Z,1009.43
2023-01-31T11:42:35.902Z,1009.45
2023-01-31T11:43:35.825Z,1009.43
2023-01-31T11:44:35.904Z,1009.45
2023-01-31T11:45:35.909Z,1009.42
2023-01-31T11:46:35.968Z,1009.45
2023-01-31T11:47:35.897Z,1009.38
2023-01-31T11:48:35.839Z,1009.37
2023-01-31T11:49:35.853Z,1009.30
2023-01-31T11:50:35.770Z,1009.27
2023-01-31T11:51:35.798Z,1009.33
2023-01-31T11:52:35.787Z,1009.35
2023-01-31T11:53:35.803Z,1009.30
2023-01-31T11:54:35.767Z,1009.23
2023-01-31T11:55:35.784Z,1009.19
2023-01-31T11:56:35.703Z,1009.22
2023-01-31T11:57:35.624Z,1009.24
2023-01-31T11:58:35.636Z,1009.16
2023-01-31T11:59:35.817Z,1009.26
2023-01-31T12:00:35.645Z,1009.12
2023-01-31T12:01:35.633Z,1009.17
2023-01-31T12:02:35.737Z,1009.14
2023-01-31T12:03:35.560Z,1009.07
2023-01-31T12:04:35.630Z,1009.10
2023-01-31T12:05:35.560Z,1009.07
2023-01-31T12:06:35.561Z,1009.07
2023-01-31T12:07:35.575Z,1009.03
2023-01-31T12:08:35.594Z,1009.04
2023-01-31T12:09:35.807Z,1008.95
2023-01-31T12:10:35.634Z,1008.96